Time;durP1;ratioP1;P1;durP2;ratioP2;P2;SDS_P1;SDS_P2;PMS_P1;PMS_P2;Temp;Humidity;BMP_temperature;BMP_pressure;BME280_temperature;BME280_humidity;BME280_pressure;Samples;Min_cycle;Max_cycle;Signal;HPM_P1;HPM_P2
2021/07/18 00:01:04;;;;;;;7.30;6.70;;;17.20;99.90;;;;;;5033571;28;20214;-66
2021/07/18 00:03:29;;;;;;;8.20;7.60;;;17.10;99.90;;;;;;5032220;28;20191;-66
2021/07/18 00:05:55;;;;;;;7.20;6.70;;;17.10;99.90;;;;;;5033198;28;20190;-66
2021/07/18 00:08:21;;;;;;;6.67;6.27;;;17.10;99.90;;;;;;5033486;28;20668;-67
2021/07/18 00:10:47;;;;;;;6.90;6.40;;;17.00;99.90;;;;;;5033342;28;20188;-66
2021/07/18 00:13:13;;;;;;;7.23;6.67;;;17.00;99.90;;;;;;5033291;28;20722;-66
2021/07/18 00:15:39;;;;;;;6.77;6.27;;;17.00;99.90;;;;;;5032868;28;20207;-66
2021/07/18 00:18:04;;;;;;;6.80;6.30;;;16.90;99.90;;;;;;5033333;28;20257;-67
2021/07/18 00:20:30;;;;;;;6.63;6.23;;;16.90;99.90;;;;;;5033362;28;20186;-65
2021/07/18 00:22:56;;;;;;;7.73;7.17;;;16.90;99.90;;;;;;5032972;28;20274;-66
2021/07/18 00:25:21;;;;;;;6.53;6.10;;;16.90;99.90;;;;;;5032956;28;20584;-66
2021/07/18 00:27:47;;;;;;;7.30;6.67;;;16.90;99.90;;;;;;5032944;28;20548;-66
2021/07/18 00:30:13;;;;;;;7.63;7.03;;;16.80;99.90;;;;;;5032949;28;20175;-66
2021/07/18 00:32:39;;;;;;;7.97;7.43;;;16.90;99.90;;;;;;5032836;28;20183;-66
2021/07/18 00:35:06;;;;;;;7.40;6.90;;;16.80;99.90;;;;;;5033307;28;20221;-67
2021/07/18 00:37:32;;;;;;;7.73;7.20;;;16.70;99.90;;;;;;5033821;28;20183;-66
2021/07/18 00:39:57;;;;;;;7.57;6.97;;;16.70;99.90;;;;;;5034919;28;20660;-67
2021/07/18 00:42:23;;;;;;;6.87;6.47;;;16.60;99.90;;;;;;5034930;28;20175;-66
2021/07/18 00:44:49;;;;;;;7.67;7.17;;;16.60;99.90;;;;;;5035033;28;20669;-68
2021/07/18 00:47:14;;;;;;;7.87;7.13;;;16.50;99.90;;;;;;5035017;28;20270;-67
2021/07/18 00:49:40;;;;;;;9.03;7.23;;;16.50;99.90;;;;;;5035457;28;20257;-67
2021/07/18 00:52:07;;;;;;;7.50;6.90;;;16.40;99.90;;;;;;5035402;28;20175;-67
2021/07/18 00:54:33;;;;;;;6.57;6.17;;;16.40;99.90;;;;;;5035141;28;20227;-66
2021/07/18 00:57:00;;;;;;;6.87;6.27;;;16.40;99.90;;;;;;5033119;28;20203;-67
2021/07/18 00:59:26;;;;;;;8.37;6.80;;;16.40;99.90;;;;;;5034632;28;20246;-66
2021/07/18 01:01:53;;;;;;;7.70;6.90;;;16.30;99.90;;;;;;5031054;28;20581;-66
2021/07/18 01:04:19;;;;;;;8.10;7.40;;;16.30;99.90;;;;;;5032001;28;20187;-66
2021/07/18 01:06:45;;;;;;;9.53;7.53;;;16.30;99.90;;;;;;5032178;28;20552;-66
2021/07/18 01:09:11;;;;;;;8.50;7.40;;;16.20;99.90;;;;;;5032277;28;20254;-67
2021/07/18 01:11:36;;;;;;;9.57;7.03;;;16.20;99.90;;;;;;5032136;28;20175;-67
2021/07/18 01:14:02;;;;;;;7.63;7.03;;;16.20;99.90;;;;;;5030637;28;20195;-66
2021/07/18 01:16:27;;;;;;;7.57;6.80;;;16.20;99.90;;;;;;5030619;28;20207;-66
2021/07/18 01:18:53;;;;;;;7.67;6.97;;;16.20;99.90;;;;;;5032056;28;20179;-67
2021/07/18 01:21:25;;;;;;;7.10;6.50;;;16.10;99.90;;;;;;5032021;28;20175;-66
2021/07/18 01:23:52;;;;;;;7.60;7.07;;;16.10;99.90;;;;;;5031641;28;20249;-66
2021/07/18 01:26:18;;;;;;;7.83;7.13;;;16.10;99.90;;;;;;5031508;28;20163;-66
2021/07/18 01:28:45;;;;;;;7.17;6.63;;;16.00;99.90;;;;;;5031821;28;20183;-66
2021/07/18 01:31:10;;;;;;;7.70;7.10;;;16.00;99.90;;;;;;5031915;28;20171;-67
2021/07/18 01:33:36;;;;;;;7.40;6.80;;;15.90;99.90;;;;;;5031537;28;20325;-67
2021/07/18 01:36:02;;;;;;;8.50;7.80;;;15.90;99.90;;;;;;5032828;28;20204;-67
2021/07/18 01:38:27;;;;;;;7.90;7.23;;;15.90;99.90;;;;;;5033528;28;20179;-67
2021/07/18 01:40:53;;;;;;;7.63;7.07;;;15.80;99.90;;;;;;5034103;28;20167;-67
2021/07/18 01:43:19;;;;;;;7.97;7.20;;;15.90;99.90;;;;;;5033676;28;20260;-67
2021/07/18 01:45:44;;;;;;;7.53;6.93;;;15.80;99.90;;;;;;5033134;28;20175;-66
2021/07/18 01:48:10;;;;;;;8.23;7.43;;;15.80;99.90;;;;;;5032340;28;20255;-68
2021/07/18 01:50:36;;;;;;;9.57;7.33;;;15.70;99.90;;;;;;5034309;28;20237;-68
2021/07/18 01:53:04;;;;;;;7.70;7.10;;;15.70;99.90;;;;;;5033749;28;20198;-67
2021/07/18 01:55:30;;;;;;;8.40;7.60;;;15.70;99.90;;;;;;5033764;28;20268;-67
2021/07/18 01:57:56;;;;;;;8.43;7.63;;;15.70;99.90;;;;;;5032956;28;20671;-68
2021/07/18 02:00:22;;;;;;;8.70;7.90;;;15.70;99.90;;;;;;5030963;28;20270;-68
2021/07/18 02:02:50;;;;;;;8.37;7.57;;;15.60;99.90;;;;;;5032816;28;20221;-68
2021/07/18 02:05:16;;;;;;;8.57;7.80;;;15.60;99.90;;;;;;5032723;28;20264;-68
2021/07/18 02:07:45;;;;;;;9.50;7.80;;;15.70;99.90;;;;;;5032988;28;20176;-67
2021/07/18 02:10:12;;;;;;;8.67;7.87;;;15.60;99.90;;;;;;5032773;28;20270;-68
2021/07/18 02:12:38;;;;;;;8.77;8.07;;;15.60;99.90;;;;;;5032594;28;20172;-68
2021/07/18 02:15:07;;;;;;;9.23;8.53;;;15.60;99.90;;;;;;5032588;28;20210;-67
2021/07/18 02:17:33;;;;;;;9.67;8.80;;;15.70;99.90;;;;;;5033149;28;20178;-67
2021/07/18 02:19:58;;;;;;;10.27;9.13;;;15.60;99.90;;;;;;5032991;28;20183;-68
2021/07/18 02:22:37;;;;;;;9.93;8.93;;;15.60;99.90;;;;;;5033198;28;20643;-68
2021/07/18 02:25:04;;;;;;;9.87;8.93;;;15.60;99.90;;;;;;5033064;28;20183;-66
2021/07/18 02:27:30;;;;;;;8.50;7.73;;;15.60;99.90;;;;;;5032591;28;20180;-68
2021/07/18 02:29:56;;;;;;;8.80;7.90;;;15.60;99.90;;;;;;5032816;28;20262;-66
2021/07/18 02:32:21;;;;;;;9.13;8.30;;;15.60;99.90;;;;;;5032749;28;20175;-68
2021/07/18 02:34:47;;;;;;;11.80;8.30;;;15.60;99.90;;;;;;5031298;28;20230;-66
2021/07/18 02:37:12;;;;;;;9.80;8.80;;;15.50;99.90;;;;;;5031526;28;20171;-67
2021/07/18 02:39:38;;;;;;;9.50;8.60;;;15.40;99.90;;;;;;5035085;28;20541;-67
2021/07/18 02:42:04;;;;;;;10.07;9.03;;;15.40;99.90;;;;;;5035182;28;20218;-66
2021/07/18 02:44:30;;;;;;;10.43;9.43;;;15.40;99.90;;;;;;5036154;28;20213;-67
2021/07/18 02:46:55;;;;;;;9.17;8.37;;;15.30;99.90;;;;;;5036866;28;20258;-66
2021/07/18 02:49:21;;;;;;;10.30;9.30;;;15.30;99.90;;;;;;5034729;28;20187;-66
2021/07/18 02:51:46;;;;;;;10.93;9.17;;;15.30;99.90;;;;;;5034911;28;20629;-66
2021/07/18 02:54:12;;;;;;;10.80;8.80;;;15.30;99.90;;;;;;5034437;28;20199;-66
2021/07/18 02:56:37;;;;;;;10.83;9.97;;;15.20;99.90;;;;;;5034848;28;20203;-66
2021/07/18 02:59:03;;;;;;;11.83;10.63;;;15.20;99.90;;;;;;5034746;28;20253;-66
2021/07/18 03:01:29;;;;;;;14.27;9.47;;;15.20;99.90;;;;;;5034649;28;20182;-66
2021/07/18 03:03:54;;;;;;;12.30;9.17;;;15.20;99.90;;;;;;5034274;28;20200;-66
2021/07/18 03:06:20;;;;;;;9.63;8.73;;;15.20;99.90;;;;;;5034468;28;20629;-66
2021/07/18 03:08:45;;;;;;;9.83;9.03;;;15.20;99.90;;;;;;5033266;28;20211;-66
2021/07/18 03:11:11;;;;;;;9.87;9.07;;;15.20;99.90;;;;;;5034450;28;20180;-66
2021/07/18 03:13:37;;;;;;;9.53;8.70;;;15.20;99.90;;;;;;5034120;28;20202;-66
2021/07/18 03:16:02;;;;;;;9.90;8.90;;;15.20;99.90;;;;;;5034407;28;20861;-66
2021/07/18 03:18:28;;;;;;;10.37;9.37;;;15.20;99.90;;;;;;5034212;28;20183;-66
2021/07/18 03:20:54;;;;;;;11.17;9.93;;;15.20;99.90;;;;;;5034362;28;20167;-66
2021/07/18 03:23:19;;;;;;;10.60;9.53;;;15.10;99.90;;;;;;5033766;28;20242;-67
2021/07/18 03:25:45;;;;;;;11.80;9.50;;;15.10;99.90;;;;;;5033888;28;20218;-66
2021/07/18 03:28:10;;;;;;;11.10;9.97;;;15.10;99.90;;;;;;5034010;28;20259;-66
2021/07/18 03:30:36;;;;;;;11.30;10.20;;;15.10;99.90;;;;;;5034179;28;20211;-66
2021/07/18 03:33:01;;;;;;;11.33;10.20;;;15.10;99.90;;;;;;5033960;28;20254;-67
2021/07/18 03:35:27;;;;;;;11.90;10.47;;;15.10;99.90;;;;;;5033691;28;20242;-66
2021/07/18 03:37:53;;;;;;;11.70;10.63;;;15.10;99.90;;;;;;5035505;28;20187;-68
2021/07/18 03:40:19;;;;;;;10.97;9.87;;;15.10;99.90;;;;;;5036200;28;20168;-67
2021/07/18 03:42:45;;;;;;;11.73;10.57;;;15.00;99.90;;;;;;5035858;28;20661;-68
2021/07/18 03:45:11;;;;;;;11.13;10.03;;;15.00;99.90;;;;;;5035622;28;20203;-67
2021/07/18 03:47:37;;;;;;;10.67;9.57;;;15.00;99.90;;;;;;5033820;28;20266;-67
2021/07/18 03:50:04;;;;;;;19.23;11.10;;;15.10;99.90;;;;;;5034784;28;20604;-68
2021/07/18 03:52:30;;;;;;;19.57;17.53;;;15.00;99.90;;;;;;5034243;28;20327;-66
2021/07/18 03:54:55;;;;;;;13.60;11.00;;;15.00;99.90;;;;;;5033221;28;20176;-66
2021/07/18 03:57:21;;;;;;;16.23;9.97;;;15.00;99.90;;;;;;5033681;28;20179;-66
2021/07/18 03:59:47;;;;;;;14.77;10.90;;;15.00;99.90;;;;;;5033580;28;20182;-67
2021/07/18 04:02:12;;;;;;;13.67;11.13;;;15.10;99.90;;;;;;5033559;28;20175;-67
2021/07/18 04:04:38;;;;;;;11.60;10.40;;;15.10;99.90;;;;;;5033259;28;20191;-66
2021/07/18 04:07:04;;;;;;;14.23;11.07;;;15.10;99.90;;;;;;5033660;28;20180;-66
2021/07/18 04:09:29;;;;;;;11.73;9.97;;;15.10;99.90;;;;;;5033334;28;20183;-66
2021/07/18 04:11:55;;;;;;;12.77;11.00;;;15.10;99.90;;;;;;5033543;28;20199;-66
2021/07/18 04:14:20;;;;;;;12.27;10.87;;;15.10;99.90;;;;;;5032706;28;20203;-66
2021/07/18 04:16:46;;;;;;;11.33;10.03;;;15.10;99.90;;;;;;5033352;28;20227;-66
2021/07/18 04:19:12;;;;;;;13.17;10.47;;;15.20;99.90;;;;;;5032941;28;20640;-66
2021/07/18 04:21:37;;;;;;;14.43;11.70;;;15.20;99.90;;;;;;5033341;28;20196;-66
2021/07/18 04:24:03;;;;;;;15.40;11.13;;;15.20;99.90;;;;;;5032748;28;20194;-66
2021/07/18 04:26:29;;;;;;;13.57;11.47;;;15.20;99.90;;;;;;5033076;28;20548;-66
2021/07/18 04:28:54;;;;;;;13.53;12.17;;;15.30;99.90;;;;;;5033026;28;20199;-66
2021/07/18 04:31:20;;;;;;;16.20;12.63;;;15.30;99.90;;;;;;5032990;28;20230;-66
2021/07/18 04:33:48;;;;;;;15.37;11.97;;;15.40;99.90;;;;;;5032576;28;20207;-66
2021/07/18 04:36:13;;;;;;;14.47;10.90;;;15.40;99.90;;;;;;5032784;28;20199;-66
2021/07/18 04:38:39;;;;;;;13.33;11.37;;;15.50;99.90;;;;;;5032819;28;20163;-66
2021/07/18 04:41:05;;;;;;;15.27;11.33;;;15.60;99.90;;;;;;5032931;28;20255;-66
2021/07/18 04:43:30;;;;;;;16.13;11.87;;;15.60;99.90;;;;;;5032447;28;20796;-66
2021/07/18 04:45:56;;;;;;;14.80;12.43;;;15.70;99.90;;;;;;5032671;28;20175;-67
2021/07/18 04:48:21;;;;;;;15.47;10.90;;;15.80;99.90;;;;;;5032635;28;20571;-66
2021/07/18 04:50:47;;;;;;;16.60;11.73;;;15.90;99.90;;;;;;5032479;28;20179;-66
2021/07/18 04:53:13;;;;;;;13.80;12.40;;;16.00;99.90;;;;;;5032609;28;20203;-66
2021/07/18 04:55:39;;;;;;;13.33;11.80;;;16.10;99.90;;;;;;5032126;28;20615;-66
2021/07/18 04:58:04;;;;;;;15.43;11.90;;;16.20;99.90;;;;;;5032453;28;20267;-66
2021/07/18 05:00:30;;;;;;;14.10;11.10;;;16.30;99.90;;;;;;5031746;28;20163;-66
2021/07/18 05:02:56;;;;;;;18.27;11.77;;;16.30;99.90;;;;;;5032304;28;20196;-67
2021/07/18 05:05:21;;;;;;;14.90;11.50;;;16.50;99.90;;;;;;5032103;28;20234;-66
2021/07/18 05:07:51;;;;;;;15.40;13.10;;;16.70;99.90;;;;;;5032400;28;20175;-66
2021/07/18 05:10:19;;;;;;;12.37;11.17;;;16.90;99.90;;;;;;5032241;28;20591;-67
2021/07/18 05:12:46;;;;;;;13.07;11.77;;;17.10;99.90;;;;;;5032068;28;20604;-66
2021/07/18 05:15:12;;;;;;;13.03;11.63;;;17.30;99.90;;;;;;5032063;28;20214;-66
2021/07/18 05:17:38;;;;;;;11.83;10.63;;;17.60;99.90;;;;;;5031977;28;20859;-66
2021/07/18 05:20:05;;;;;;;14.53;11.43;;;17.70;99.90;;;;;;5032280;28;20178;-66
2021/07/18 05:22:31;;;;;;;11.77;10.67;;;17.60;99.90;;;;;;5031768;28;20164;-66
2021/07/18 05:24:56;;;;;;;12.77;11.30;;;17.80;99.90;;;;;;5031886;28;20183;-66
2021/07/18 05:27:22;;;;;;;13.83;10.60;;;17.90;99.90;;;;;;5031805;28;20184;-66
2021/07/18 05:29:48;;;;;;;11.83;10.10;;;18.10;99.90;;;;;;5032098;28;20270;-66
2021/07/18 05:32:14;;;;;;;12.60;9.83;;;18.20;99.90;;;;;;5031451;28;20210;-67
2021/07/18 05:34:39;;;;;;;10.47;9.47;;;18.40;99.90;;;;;;5031560;28;20603;-66
2021/07/18 05:37:08;;;;;;;12.57;10.10;;;18.60;99.90;;;;;;5031716;28;20199;-66
2021/07/18 05:39:34;;;;;;;10.00;9.10;;;18.70;99.90;;;;;;5031895;28;20175;-66
2021/07/18 05:41:59;;;;;;;10.50;9.00;;;19.10;99.90;;;;;;5031722;28;20175;-66
2021/07/18 05:44:31;;;;;;;11.53;10.33;;;19.20;99.90;;;;;;5031308;28;20262;-66
2021/07/18 05:46:57;;;;;;;9.70;8.93;;;19.40;99.90;;;;;;5031668;28;20187;-66
2021/07/18 05:49:23;;;;;;;11.33;10.23;;;19.30;99.90;;;;;;5031621;28;20919;-66
2021/07/18 05:51:49;;;;;;;10.80;9.70;;;19.30;99.90;;;;;;5031324;28;20711;-66
2021/07/18 05:54:14;;;;;;;10.40;9.40;;;19.40;99.90;;;;;;5031320;28;20187;-66
2021/07/18 05:56:40;;;;;;;10.70;9.60;;;19.50;99.90;;;;;;5030122;28;20598;-66
2021/07/18 05:59:05;;;;;;;11.70;10.67;;;19.70;99.90;;;;;;5031987;28;20246;-67
2021/07/18 06:01:31;;;;;;;12.33;11.07;;;19.90;99.90;;;;;;5028145;28;20797;-67
2021/07/18 06:03:57;;;;;;;10.27;9.37;;;19.90;99.90;;;;;;5031111;28;20191;-66
2021/07/18 06:06:22;;;;;;;10.87;9.97;;;19.80;99.90;;;;;;5030249;28;20187;-66
2021/07/18 06:08:48;;;;;;;10.30;9.40;;;19.80;99.90;;;;;;5023690;28;20555;-66
2021/07/18 06:11:14;;;;;;;10.37;9.47;;;19.90;99.90;;;;;;5012328;28;20187;-67
2021/07/18 06:13:40;;;;;;;11.33;10.23;;;20.10;99.90;;;;;;5029661;28;20265;-66
2021/07/18 06:16:06;;;;;;;10.10;9.10;;;20.50;99.90;;;;;;5035485;28;20199;-66
2021/07/18 06:18:32;;;;;;;10.40;9.35;;;20.90;99.90;;;;;;5035080;28;20178;-66
2021/07/18 06:20:58;;;;;;;11.82;8.82;;;21.40;99.90;;;;;;5035412;28;20176;-66
2021/07/18 06:23:24;;;;;;;9.85;8.93;;;21.70;99.90;;;;;;5035093;28;20609;-66
2021/07/18 06:25:49;;;;;;;10.48;9.32;;;21.80;99.90;;;;;;5035085;28;20175;-66
2021/07/18 06:28:15;;;;;;;11.05;9.93;;;22.00;99.90;;;;;;5035086;28;20229;-66
2021/07/18 06:30:41;;;;;;;10.00;9.00;;;22.30;99.90;;;;;;5035070;28;20573;-67
2021/07/18 06:33:07;;;;;;;9.77;8.85;;;22.40;99.90;;;;;;5034915;28;20203;-66
2021/07/18 06:35:33;;;;;;;10.18;9.05;;;22.60;99.90;;;;;;5034656;28;20219;-66
2021/07/18 06:37:58;;;;;;;9.80;8.90;;;22.80;99.90;;;;;;5033781;28;20664;-66
2021/07/18 06:40:24;;;;;;;9.15;8.35;;;23.20;99.90;;;;;;5034937;28;20168;-66
2021/07/18 06:42:50;;;;;;;9.07;8.38;;;23.10;99.90;;;;;;5034748;28;20203;-67
2021/07/18 06:45:15;;;;;;;12.82;9.90;;;23.30;99.90;;;;;;5014857;28;20226;-67
2021/07/18 06:47:41;;;;;;;10.65;9.65;;;23.40;99.90;;;;;;5015121;28;20173;-66
2021/07/18 06:50:08;;;;;;;10.80;9.80;;;23.50;99.90;;;;;;5033539;28;20171;-67
2021/07/18 06:52:33;;;;;;;11.27;10.18;;;23.90;99.90;;;;;;5034516;28;20183;-67
2021/07/18 06:54:59;;;;;;;11.90;10.85;;;23.90;99.90;;;;;;5033216;28;20198;-67
2021/07/18 06:57:24;;;;;;;11.63;10.60;;;24.10;99.90;;;;;;5034428;28;20254;-67
2021/07/18 06:59:50;;;;;;;11.82;10.63;;;24.00;99.90;;;;;;5034802;28;20533;-67
2021/07/18 07:02:16;;;;;;;12.05;10.85;;;24.30;99.90;;;;;;5031536;28;20628;-67
2021/07/18 07:04:42;;;;;;;11.40;10.20;;;23.90;99.90;;;;;;5034233;28;20210;-67
2021/07/18 07:07:07;;;;;;;10.57;9.57;;;23.80;99.90;;;;;;5034317;28;20179;-67
2021/07/18 07:09:33;;;;;;;12.52;11.32;;;24.00;99.90;;;;;;5033137;28;20179;-67
2021/07/18 07:11:59;;;;;;;11.27;10.25;;;24.00;99.90;;;;;;5044421;28;20176;-67
2021/07/18 07:14:25;;;;;;;11.27;10.15;;;24.30;99.90;;;;;;5033247;28;20199;-67
2021/07/18 07:16:50;;;;;;;10.63;9.68;;;24.60;99.90;;;;;;5044780;28;20225;-67
2021/07/18 07:19:16;;;;;;;12.60;11.40;;;24.80;99.90;;;;;;5034127;28;20167;-67
2021/07/18 07:21:42;;;;;;;12.20;10.98;;;25.00;99.90;;;;;;5033889;28;20171;-67
2021/07/18 07:24:08;;;;;;;12.55;11.43;;;25.30;99.90;;;;;;5033220;28;20278;-67
2021/07/18 07:26:33;;;;;;;13.38;12.25;;;25.20;99.90;;;;;;5033895;28;20188;-67
2021/07/18 07:28:59;;;;;;;11.13;10.07;;;25.40;99.90;;;;;;5034101;28;20186;-67
2021/07/18 07:31:25;;;;;;;13.10;11.90;;;25.70;99.90;;;;;;5034028;28;20180;-67
2021/07/18 07:33:51;;;;;;;11.63;10.48;;;25.90;99.90;;;;;;5033095;28;20199;-67
2021/07/18 07:36:17;;;;;;;11.88;10.52;;;26.10;99.90;;;;;;5032545;28;20199;-67
2021/07/18 07:38:43;;;;;;;13.10;11.80;;;26.30;99.90;;;;;;5033422;28;20665;-67
2021/07/18 07:41:09;;;;;;;11.00;9.98;;;26.10;99.90;;;;;;5033716;28;20179;-67
2021/07/18 07:43:35;;;;;;;9.90;8.90;;;26.30;99.90;;;;;;5033578;28;20727;-67
2021/07/18 07:46:01;;;;;;;10.07;9.18;;;26.60;99.90;;;;;;5033784;28;20186;-67
2021/07/18 07:48:26;;;;;;;10.68;9.68;;;27.00;99.90;;;;;;5032381;28;20175;-67
2021/07/18 07:50:54;;;;;;;9.93;8.80;;;27.00;99.90;;;;;;5033747;28;20187;-67
2021/07/18 07:53:19;;;;;;;9.88;8.88;;;27.00;99.90;;;;;;5033628;28;20192;-67
2021/07/18 07:55:45;;;;;;;9.10;8.23;;;27.10;99.90;;;;;;5033055;28;20539;-67
2021/07/18 07:58:12;;;;;;;10.02;8.45;;;27.50;99.90;;;;;;5033287;28;20171;-67
2021/07/18 08:00:37;;;;;;;8.93;8.10;;;28.00;99.90;;;;;;5033309;28;20211;-67
2021/07/18 08:03:03;;;;;;;8.88;8.02;;;28.30;99.90;;;;;;5031401;28;20199;-67
2021/07/18 08:05:29;;;;;;;8.80;7.95;;;28.30;99.90;;;;;;5032870;28;20180;-67
2021/07/18 08:07:55;;;;;;;7.35;6.68;;;28.30;99.90;;;;;;5033294;28;20175;-67
2021/07/18 08:10:22;;;;;;;8.18;7.38;;;28.20;99.90;;;;;;5032696;28;20191;-67
2021/07/18 08:12:48;;;;;;;7.75;7.15;;;27.70;99.90;;;;;;5032759;28;20644;-67
2021/07/18 08:15:16;;;;;;;7.72;7.07;;;27.60;99.90;;;;;;5032427;28;20288;-67
2021/07/18 08:17:42;;;;;;;7.93;7.28;;;27.70;99.90;;;;;;5031461;28;20546;-67
2021/07/18 08:20:14;;;;;;;6.18;5.72;;;28.00;99.90;;;;;;5032904;28;20179;-67
2021/07/18 08:22:40;;;;;;;8.43;5.85;;;28.00;99.90;;;;;;5033008;28;20183;-67
2021/07/18 08:25:07;;;;;;;5.75;5.35;;;28.30;99.90;;;;;;5031928;28;20195;-67
2021/07/18 08:27:33;;;;;;;5.70;5.20;;;28.50;99.90;;;;;;5032947;28;20167;-67
2021/07/18 08:29:59;;;;;;;6.35;5.85;;;28.60;99.90;;;;;;5032749;28;20262;-67
2021/07/18 08:32:24;;;;;;;5.50;5.20;;;28.80;99.90;;;;;;5032816;28;20669;-67
2021/07/18 08:34:50;;;;;;;5.60;5.13;;;28.90;99.90;;;;;;5031504;28;20203;-67
2021/07/18 08:37:16;;;;;;;5.35;4.95;;;29.00;99.90;;;;;;5032184;28;20199;-67
2021/07/18 08:39:41;;;;;;;5.15;4.75;;;29.30;99.90;;;;;;5033001;28;20205;-67
2021/07/18 08:42:08;;;;;;;5.53;5.03;;;29.70;99.90;;;;;;5032636;28;20187;-67
2021/07/18 08:44:35;;;;;;;5.53;5.13;;;29.90;99.90;;;;;;5032771;28;20704;-67
2021/07/18 08:47:00;;;;;;;5.53;4.78;;;30.00;99.90;;;;;;5032799;28;20233;-67
2021/07/18 08:49:26;;;;;;;5.53;5.10;;;30.40;99.90;;;;;;5032567;28;20175;-67
2021/07/18 08:51:53;;;;;;;4.78;4.47;;;30.80;99.90;;;;;;5032452;28;20536;-67
2021/07/18 08:54:23;;;;;;;5.78;5.38;;;30.60;99.90;;;;;;5030130;28;20270;-67
2021/07/18 08:56:49;;;;;;;5.03;4.60;;;30.60;99.90;;;;;;5032155;28;20203;-67
2021/07/18 08:59:14;;;;;;;5.82;5.38;;;30.20;99.90;;;;;;5032208;28;20544;-67
2021/07/18 09:01:43;;;;;;;4.78;4.40;;;30.50;99.90;;;;;;5031684;28;20218;-67
2021/07/18 09:04:09;;;;;;;5.55;5.15;;;30.70;99.90;;;;;;5032075;28;20187;-67
2021/07/18 09:07:04;;;;;;;4.85;4.55;;;30.60;99.90;;;;;;5032028;28;20672;-67
2021/07/18 09:09:32;;;;;;;5.75;4.93;;;30.70;99.90;;;;;;5030493;28;20596;-67
2021/07/18 09:12:02;;;;;;;5.20;4.70;;;31.10;99.90;;;;;;5032153;28;20534;-67
2021/07/18 09:14:45;;;;;;;6.07;5.10;;;31.50;99.90;;;;;;5031871;28;20195;-67
2021/07/18 09:17:16;;;;;;;5.38;4.97;;;31.90;99.90;;;;;;5032048;28;20237;-67
2021/07/18 09:19:47;;;;;;;5.18;4.63;;;32.00;99.90;;;;;;5032194;28;20290;-67
2021/07/18 09:22:22;;;;;;;4.97;4.63;;;31.50;99.90;;;;;;5032002;28;20762;-67
2021/07/18 09:24:55;;;;;;;4.75;4.30;;;31.30;99.90;;;;;;5031806;28;20203;-67
2021/07/18 09:27:22;;;;;;;5.65;4.90;;;31.00;99.90;;;;;;5031828;28;20537;-67
2021/07/18 09:29:56;;;;;;;5.20;4.80;;;31.00;99.90;;;;;;5030667;28;20179;-67
2021/07/18 09:32:27;;;;;;;4.93;4.60;;;30.80;99.90;;;;;;5031807;28;20183;-67
2021/07/18 09:35:00;;;;;;;5.50;5.00;;;30.50;99.90;;;;;;5031546;28;20554;-67
2021/07/18 09:37:28;;;;;;;4.57;4.18;;;30.20;99.90;;;;;;5030925;28;20345;-67
2021/07/18 09:40:04;;;;;;;5.25;4.85;;;30.20;99.90;;;;;;5031916;28;20164;-67
2021/07/18 09:42:42;;;;;;;5.28;4.88;;;30.00;99.90;;;;;;5031208;28;20171;-67
2021/07/18 09:45:26;;;;;;;4.03;3.72;;;29.90;99.90;;;;;;5031525;28;20665;-67
2021/07/18 09:48:04;;;;;;;5.13;4.72;;;30.10;99.90;;;;;;5031200;28;20193;-66
2021/07/18 09:50:47;;;;;;;5.28;4.65;;;30.20;99.90;;;;;;5031754;28;20540;-67
2021/07/18 09:53:22;;;;;;;5.20;4.70;;;30.40;99.90;;;;;;5011998;28;20203;-67
2021/07/18 09:55:58;;;;;;;6.05;5.65;;;30.50;99.90;;;;;;5012173;28;20591;-67
2021/07/18 09:58:27;;;;;;;5.90;5.47;;;30.50;99.90;;;;;;5011304;28;20431;-67
2021/07/18 10:00:54;;;;;;;6.80;4.75;;;30.90;99.90;;;;;;5017515;28;20540;-67
2021/07/18 10:03:23;;;;;;;5.70;5.30;;;31.00;99.90;;;;;;5030597;28;20187;-67
2021/07/18 10:06:11;;;;;;;5.32;4.90;;;31.40;99.90;;;;;;5031139;28;20186;-67
2021/07/18 10:08:48;;;;;;;6.20;5.18;;;31.30;99.90;;;;;;5031586;28;20183;-67
2021/07/18 10:11:16;;;;;;;4.80;4.45;;;31.50;99.90;;;;;;5031326;28;20180;-67
2021/07/18 10:13:43;;;;;;;7.00;5.63;;;32.40;99.90;;;;;;5031162;28;20290;-67
2021/07/18 10:16:10;;;;;;;5.97;5.47;;;32.90;99.90;;;;;;5031156;28;20207;-67
2021/07/18 10:18:38;;;;;;;7.60;6.30;;;32.70;99.90;;;;;;5031484;28;20210;-67
2021/07/18 10:21:06;;;;;;;6.40;5.90;;;32.70;99.90;;;;;;5031299;28;20178;-66
2021/07/18 10:23:34;;;;;;;6.68;5.95;;;32.60;99.90;;;;;;5030909;28;20551;-67
2021/07/18 10:26:00;;;;;;;6.95;5.70;;;32.70;99.90;;;;;;5031433;28;20172;-66
2021/07/18 10:28:27;;;;;;;8.00;6.68;;;32.90;99.90;;;;;;5031024;28;20187;-67
2021/07/18 10:31:04;;;;;;;9.77;6.20;;;32.70;99.90;;;;;;5031097;28;20903;-69
2021/07/18 10:33:31;;;;;;;6.45;5.85;;;32.60;99.90;;;;;;5031007;28;20203;-67
2021/07/18 10:35:58;;;;;;;7.45;5.80;;;32.60;99.90;;;;;;5030904;28;20238;-68
2021/07/18 10:38:25;;;;;;;6.85;5.70;;;32.60;99.90;;;;;;5028967;28;20816;-68
2021/07/18 10:40:54;;;;;;;6.22;5.72;;;32.30;99.90;;;;;;5016502;28;20255;-66
2021/07/18 10:43:49;;;;;;;6.18;5.60;;;32.10;99.90;;;;;;5031123;28;20723;-67
2021/07/18 10:46:35;;;;;;;5.80;5.30;;;32.00;99.90;;;;;;5030156;28;20222;-67
2021/07/18 10:49:01;;;;;;;6.10;5.00;;;31.60;99.90;;;;;;5031161;28;20260;-66
2021/07/18 10:51:37;;;;;;;4.97;4.65;;;31.90;99.90;;;;;;5030973;28;20215;-68
2021/07/18 10:54:20;;;;;;;5.63;4.93;;;32.00;99.90;;;;;;5031381;28;20703;-67
2021/07/18 10:56:51;;;;;;;4.60;4.30;;;32.50;99.90;;;;;;5030769;28;20218;-67
2021/07/18 10:59:37;;;;;;;5.18;4.70;;;32.70;99.90;;;;;;5033226;28;20562;-67
2021/07/18 11:02:10;;;;;;;5.32;5.03;;;32.30;99.90;;;;;;5033407;28;20207;-67
2021/07/18 11:04:54;;;;;;;4.78;4.40;;;32.30;99.90;;;;;;5034168;28;20207;-66
2021/07/18 11:07:20;;;;;;;4.70;4.30;;;32.20;99.90;;;;;;5034255;28;20270;-67
2021/07/18 11:09:47;;;;;;;4.40;4.10;;;32.30;99.90;;;;;;5034496;28;20254;-66
2021/07/18 11:12:32;;;;;;;4.68;4.38;;;32.50;99.90;;;;;;5034309;28;20641;-67
2021/07/18 11:15:15;;;;;;;4.57;4.28;;;33.10;99.90;;;;;;5034327;28;20614;-67
2021/07/18 11:17:59;;;;;;;4.18;3.72;;;33.50;99.90;;;;;;5034274;28;20237;-66
2021/07/18 11:20:41;;;;;;;4.28;3.97;;;32.40;99.90;;;;;;5034187;28;20167;-67
2021/07/18 11:23:09;;;;;;;4.57;4.28;;;31.90;99.90;;;;;;5034268;28;20190;-66
2021/07/18 11:26:03;;;;;;;4.50;4.20;;;31.90;99.90;;;;;;5033815;28;20176;-67
2021/07/18 11:28:34;;;;;;;5.93;4.93;;;31.90;99.90;;;;;;5032481;28;20187;-67
2021/07/18 11:31:11;;;;;;;3.78;3.58;;;32.30;99.90;;;;;;5033994;28;20171;-66
2021/07/18 11:34:20;;;;;;;5.22;4.93;;;31.60;99.90;;;;;;5033917;28;20271;-67
2021/07/18 11:36:48;;;;;;;3.50;3.30;;;31.40;99.90;;;;;;5030277;28;20222;-66
2021/07/18 11:39:17;;;;;;;4.32;4.10;;;31.80;99.90;;;;;;5034011;28;20168;-67
2021/07/18 11:41:44;;;;;;;4.07;3.88;;;32.40;99.90;;;;;;5033805;28;20183;-67
2021/07/18 11:44:11;;;;;;;4.00;3.70;;;33.10;99.90;;;;;;5033598;28;20297;-66
2021/07/18 11:46:41;;;;;;;3.88;3.58;;;33.10;99.90;;;;;;5034215;28;20175;-66
2021/07/18 11:49:08;;;;;;;4.32;4.03;;;33.10;99.90;;;;;;5034137;28;20183;-66
2021/07/18 11:51:39;;;;;;;4.15;3.90;;;33.10;99.90;;;;;;5033724;28;20545;-67
2021/07/18 11:54:06;;;;;;;4.05;3.75;;;32.60;99.90;;;;;;5033663;28;20239;-66
2021/07/18 11:56:41;;;;;;;4.22;4.03;;;32.10;99.90;;;;;;5033648;28;20211;-66
2021/07/18 11:59:07;;;;;;;4.55;4.25;;;32.50;99.90;;;;;;5033791;28;20181;-66
2021/07/18 12:01:36;;;;;;;4.28;3.97;;;32.70;99.90;;;;;;5033536;28;20609;-66
2021/07/18 12:04:04;;;;;;;4.45;4.07;;;33.10;99.90;;;;;;5033444;28;20556;-67
2021/07/18 12:06:31;;;;;;;3.90;3.60;;;33.10;99.90;;;;;;5033419;28;20175;-66
2021/07/18 12:08:58;;;;;;;3.83;3.63;;;33.60;99.90;;;;;;5033219;28;20233;-66
2021/07/18 12:11:25;;;;;;;3.80;3.60;;;34.10;99.90;;;;;;5033285;28;20211;-67
2021/07/18 12:13:55;;;;;;;4.05;3.85;;;33.70;99.90;;;;;;5032983;28;20207;-66
2021/07/18 12:16:21;;;;;;;4.43;4.22;;;33.60;99.90;;;;;;5032979;28;20230;-66
2021/07/18 12:18:48;;;;;;;4.60;4.03;;;33.40;99.90;;;;;;5032313;28;20176;-66
2021/07/18 12:21:26;;;;;;;4.10;3.63;;;33.60;99.90;;;;;;5023576;28;20646;-67
2021/07/18 12:24:29;;;;;;;4.93;4.32;;;33.90;99.90;;;;;;5013060;28;20192;-66
2021/07/18 12:26:58;;;;;;;4.53;4.05;;;34.60;99.90;;;;;;5023110;28;20183;-67
2021/07/18 12:29:25;;;;;;;3.42;3.20;;;34.90;99.90;;;;;;5032785;28;20179;-66
2021/07/18 12:31:51;;;;;;;3.97;3.67;;;35.20;99.90;;;;;;5032898;28;20182;-66
2021/07/18 12:34:19;;;;;;;3.85;3.65;;;34.90;99.90;;;;;;5032641;28;20203;-66
2021/07/18 12:36:57;;;;;;;3.88;3.67;;;34.60;99.90;;;;;;5032726;28;20742;-67
2021/07/18 12:39:27;;;;;;;3.85;3.65;;;34.50;99.90;;;;;;5032875;28;20171;-67
2021/07/18 12:41:53;;;;;;;4.32;3.92;;;34.80;99.90;;;;;;5032518;28;20176;-67
2021/07/18 12:44:23;;;;;;;3.83;3.53;;;34.90;99.90;;;;;;5032305;28;20238;-66